Capt Amer — 3FCQ3 — position and weather

sailwx.info

Track history (hours):
 
Tides and Currents Weather Stations Pressure Air Temp Water Temp Dewpoint Dewpoint Depression Visibility Wind Speed Wind Dir Waves Ship Positions

Capt Amer

Last reported at 2015-Apr-19 09:32 UTC. Time now 2015-Apr-19 21:06 UTC.
Position N 37°17' E 024°51'.

Length 113 m; draft 5.1 m.

Type: Cargo ship. MMSI: 373175000.

Date/timePositionNaut miles runAvg speedWind from/ knotsBaromVisibWave heightAir tempDewpointWater temp
2015-Apr-19 09:32N 37°17' E 024°51'1010.5
2015-Apr-19 08:33N 37°24' E 025°00'2 1.7
2015-Apr-19 07:33N 37°25' E 024°59'0 0.0
2015-Apr-19 06:33N 37°25' E 024°59'0 0.0
2015-Apr-19 05:33N 37°25' E 024°59'0 0.1
2015-Apr-19 04:33N 37°25' E 024°59'0 0.0
2015-Apr-19 03:33N 37°25' E 024°59'0 0.3
2015-Apr-19 02:33N 37°25' E 024°59'7 6.8
2015-Apr-19 01:33N 37°28' E 025°07'9 9.2
2015-Apr-19 00:33N 37°32' E 025°17'9 8.4
2015-Apr-18 23:31N 37°41' E 025°14'9 9.6
2015-Apr-18 22:33N 37°49' E 025°08'140 9.4
2015-Apr-18 07:33N 40°02' E 026°07'  
2015-Apr-15 06:31N 40°46' E 029°29'0 0.0
2015-Apr-15 04:20N 40°46' E 029°29'0 0.0
2015-Apr-15 03:25N 40°46' E 029°29'0 0.0
2015-Apr-15 02:25N 40°46' E 029°29'0 0.0
2015-Apr-15 00:13N 40°46' E 029°29'0 0.1
2015-Apr-14 22:13N 40°46' E 029°29'0 0.0
2015-Apr-14 20:31N 40°46' E 029°29'0 0.0
2015-Apr-14 16:19N 40°46' E 029°29'0 0.0
2015-Apr-14 15:07N 40°46' E 029°29'0 0.1
2015-Apr-14 14:31N 40°46' E 029°29'0 0.0
2015-Apr-14 13:07N 40°46' E 029°29'0 0.2
2015-Apr-14 12:31N 40°46' E 029°29'0 0.1
2015-Apr-14 11:19N 40°46' E 029°29'0 0.0
2015-Apr-14 10:19N 40°46' E 029°29'0 0.0
2015-Apr-14 09:31N 40°46' E 029°29'0 0.0
2015-Apr-14 08:13N 40°46' E 029°29'0 0.0
2015-Apr-14 06:19N 40°46' E 029°29'0 0.0
2015-Apr-14 05:25N 40°46' E 029°29'0 0.0
2015-Apr-14 04:31N 40°46' E 029°29'0 0.0
2015-Apr-14 03:07N 40°46' E 029°29'0 0.0
2015-Apr-14 02:31N 40°46' E 029°29'0 0.0
2015-Apr-14 01:07N 40°46' E 029°29'0 0.0
2015-Apr-14 00:31N 40°46' E 029°29'0 0.0
2015-Apr-13 23:13N 40°46' E 029°29'0 0.0
2015-Apr-13 22:25N 40°46' E 029°29'0 0.0
2015-Apr-13 21:31N 40°46' E 029°29'0 0.0
2015-Apr-13 20:25N 40°46' E 029°29'0 0.0
2015-Apr-13 18:25N 40°46' E 029°29'0 0.0
2015-Apr-13 17:25N 40°46' E 029°29'0 0.0
2015-Apr-13 15:25N 40°46' E 029°29'0 0.0
2015-Apr-13 12:07N 40°46' E 029°29'0 0.0
2015-Apr-13 11:13N 40°46' E 029°29'0 0.0
2015-Apr-13 10:20N 40°46' E 029°29'  
2015-Apr-11 00:03N 37°36' E 024°11'4311.9
2015-Apr-10 20:26N 37°06' E 023°32'1112.0
2015-Apr-10 19:33N 36°59' E 023°22'  
Track history (hours):
 
Tides and Currents Weather Stations Pressure Air Temp Water Temp Dewpoint Dewpoint Depression Visibility Wind Speed Wind Dir Waves Ship Positions

Capt Amer

Last reported at 2015-Apr-19 09:32 UTC. Time now 2015-Apr-19 21:06 UTC.
Position N 37°17' E 024°51'.

Length 113 m; draft 5.1 m.

Type: Cargo ship. MMSI: 373175000.

Date/timePositionNaut miles runAvg speedWind from/ knotsBaromVisibWave heightAir tempDewpointWater temp
2015-Apr-19 09:32N 37°17' E 024°51'1010.5
2015-Apr-19 08:33N 37°24' E 025°00'2 1.7
2015-Apr-19 07:33N 37°25' E 024°59'0 0.0
2015-Apr-19 06:33N 37°25' E 024°59'0 0.0
2015-Apr-19 05:33N 37°25' E 024°59'0 0.1
2015-Apr-19 04:33N 37°25' E 024°59'0 0.0
2015-Apr-19 03:33N 37°25' E 024°59'0 0.3
2015-Apr-19 02:33N 37°25' E 024°59'7 6.8
2015-Apr-19 01:33N 37°28' E 025°07'9 9.2
2015-Apr-19 00:33N 37°32' E 025°17'9 8.4
2015-Apr-18 23:31N 37°41' E 025°14'9 9.6
2015-Apr-18 22:33N 37°49' E 025°08'140 9.4
2015-Apr-18 07:33N 40°02' E 026°07'  
2015-Apr-15 06:31N 40°46' E 029°29'0 0.0
2015-Apr-15 04:20N 40°46' E 029°29'0 0.0
2015-Apr-15 03:25N 40°46' E 029°29'0 0.0
2015-Apr-15 02:25N 40°46' E 029°29'0 0.0
2015-Apr-15 00:13N 40°46' E 029°29'0 0.1
2015-Apr-14 22:13N 40°46' E 029°29'0 0.0
2015-Apr-14 20:31N 40°46' E 029°29'0 0.0
2015-Apr-14 16:19N 40°46' E 029°29'0 0.0
2015-Apr-14 15:07N 40°46' E 029°29'0 0.1
2015-Apr-14 14:31N 40°46' E 029°29'0 0.0
2015-Apr-14 13:07N 40°46' E 029°29'0 0.2
2015-Apr-14 12:31N 40°46' E 029°29'0 0.1
2015-Apr-14 11:19N 40°46' E 029°29'0 0.0
2015-Apr-14 10:19N 40°46' E 029°29'0 0.0
2015-Apr-14 09:31N 40°46' E 029°29'0 0.0
2015-Apr-14 08:13N 40°46' E 029°29'0 0.0
2015-Apr-14 06:19N 40°46' E 029°29'0 0.0
2015-Apr-14 05:25N 40°46' E 029°29'0 0.0
2015-Apr-14 04:31N 40°46' E 029°29'0 0.0
2015-Apr-14 03:07N 40°46' E 029°29'0 0.0
2015-Apr-14 02:31N 40°46' E 029°29'0 0.0
2015-Apr-14 01:07N 40°46' E 029°29'0 0.0
2015-Apr-14 00:31N 40°46' E 029°29'0 0.0
2015-Apr-13 23:13N 40°46' E 029°29'0 0.0
2015-Apr-13 22:25N 40°46' E 029°29'0 0.0
2015-Apr-13 21:31N 40°46' E 029°29'0 0.0
2015-Apr-13 20:25N 40°46' E 029°29'0 0.0
2015-Apr-13 18:25N 40°46' E 029°29'0 0.0
2015-Apr-13 17:25N 40°46' E 029°29'0 0.0
2015-Apr-13 15:25N 40°46' E 029°29'0 0.0
2015-Apr-13 12:07N 40°46' E 029°29'0 0.0
2015-Apr-13 11:13N 40°46' E 029°29'0 0.0
2015-Apr-13 10:20N 40°46' E 029°29'  
2015-Apr-11 00:03N 37°36' E 024°11'4311.9
2015-Apr-10 20:26N 37°06' E 023°32'1112.0
2015-Apr-10 19:33N 36°59' E 023°22'  

Dump ship's entire track history